createdAt,value
2023-04-03T00:01:04.963Z,103099.75
2023-04-03T00:06:09.809Z,103107.72
2023-04-03T00:11:12.801Z,103113.34
2023-04-03T00:16:16.142Z,103124.19
2023-04-03T00:21:20.462Z,103123.34
2023-04-03T00:26:23.333Z,103127.28
2023-04-03T00:31:26.453Z,103125.19
2023-04-03T00:36:31.828Z,103129.97
2023-04-03T00:41:34.845Z,103128.81
2023-04-03T00:46:37.703Z,103134.00
2023-04-03T00:51:42.060Z,103132.00
2023-04-03T00:56:45.590Z,103129.81
2023-04-03T01:01:48.953Z,103136.03
2023-04-03T01:06:53.416Z,103134.63
2023-04-03T01:11:56.705Z,103139.09
2023-04-03T01:16:59.737Z,103145.97
2023-04-03T01:22:13.836Z,103151.63
2023-04-03T01:27:16.665Z,103151.09
2023-04-03T01:32:21.004Z,103138.84
2023-04-03T01:37:23.974Z,103147.63
2023-04-03T01:42:26.975Z,103144.91
2023-04-03T01:47:32.011Z,103139.34
2023-04-03T01:52:35.168Z,103146.78
2023-04-03T01:57:38.147Z,103148.03
2023-04-03T02:02:42.456Z,103136.09
2023-04-03T02:07:45.494Z,103148.03
2023-04-03T02:12:48.308Z,103152.06
2023-04-03T02:17:53.037Z,103148.41
2023-04-03T02:22:56.487Z,103148.44
2023-04-03T02:28:01.666Z,103150.00
2023-04-03T02:33:05.900Z,103165.69
2023-04-03T02:38:08.876Z,103170.72
2023-04-03T02:43:12.246Z,103169.75
2023-04-03T02:48:17.939Z,103177.94
2023-04-03T02:53:21.268Z,103179.09
2023-04-03T02:58:25.799Z,103191.63
2023-04-03T03:03:32.542Z,103198.63
2023-04-03T03:08:36.012Z,103191.25
2023-04-03T03:13:39.149Z,103194.00
2023-04-03T03:18:43.311Z,103194.50
2023-04-03T03:23:46.248Z,103201.94
2023-04-03T03:28:49.048Z,103199.81
2023-04-03T03:33:53.299Z,103187.88
2023-04-03T03:38:56.111Z,103196.84
2023-04-03T03:44:00.481Z,103203.56
2023-04-03T03:49:07.086Z,103210.56
2023-04-03T03:54:10.490Z,103210.56
2023-04-03T03:59:13.824Z,103200.25
2023-04-03T04:04:18.512Z,103215.47
2023-04-03T04:09:22.035Z,103210.72
2023-04-03T04:14:25.129Z,103204.72
2023-04-03T04:19:30.427Z,103202.84
2023-04-03T04:24:33.481Z,103206.81
2023-04-03T04:29:38.951Z,103209.88
2023-04-03T04:34:45.553Z,103201.22
2023-04-03T04:39:48.587Z,103206.34
2023-04-03T04:44:51.922Z,103209.34
2023-04-03T04:49:56.618Z,103219.44
2023-04-03T04:54:59.962Z,103231.69
2023-04-03T05:00:04.005Z,103228.31
2023-04-03T05:05:10.181Z,103235.97
2023-04-03T05:10:14.294Z,103233.69
2023-04-03T05:15:17.671Z,103234.97
2023-04-03T05:20:22.645Z,103229.41
2023-04-03T05:25:27.289Z,103234.66
2023-04-03T05:30:31.394Z,103241.66
2023-04-03T05:35:37.769Z,103246.88
2023-04-03T05:40:41.438Z,103245.13
2023-04-03T05:45:46.777Z,103240.94
2023-04-03T05:50:52.244Z,103244.47
2023-04-03T05:56:00.292Z,103257.72
2023-04-03T06:01:05.058Z,103251.72
2023-04-03T06:06:09.590Z,103253.78
2023-04-03T06:11:12.774Z,103260.78
2023-04-03T06:16:16.319Z,103258.19
2023-04-03T06:21:20.737Z,103266.38
2023-04-03T06:26:23.550Z,103265.28
2023-04-03T06:31:26.600Z,103275.13
2023-04-03T06:36:31.090Z,103277.25
2023-04-03T06:41:35.303Z,103287.13
2023-04-03T06:46:39.316Z,103288.88
2023-04-03T06:51:43.596Z,103305.91
2023-04-03T06:56:46.936Z,103295.06
2023-04-03T07:01:49.880Z,103289.16
2023-04-03T07:06:54.430Z,103297.56
2023-04-03T07:11:57.199Z,103297.56
2023-04-03T07:16:59.977Z,103308.66
2023-04-03T07:22:04.349Z,103314.53
2023-04-03T07:27:09.377Z,103325.81
2023-04-03T07:32:12.742Z,103331.88
2023-04-03T07:37:17.252Z,103335.56
2023-04-03T07:42:20.213Z,103334.41
2023-04-03T07:47:23.223Z,103341.13
2023-04-03T07:52:27.460Z,103350.03
2023-04-03T07:57:30.640Z,103343.56
2023-04-03T08:02:33.917Z,103337.31
2023-04-03T08:07:38.612Z,103349.38
2023-04-03T08:12:41.422Z,103353.50
2023-04-03T08:17:44.238Z,103371.97
2023-04-03T08:22:48.491Z,103361.84
2023-04-03T08:27:51.664Z,103370.91
2023-04-03T08:32:54.603Z,103370.56
2023-04-03T08:37:58.839Z,103368.84
2023-04-03T08:43:09.943Z,103365.50
2023-04-03T08:48:16.538Z,103367.72
2023-04-03T08:53:23.426Z,103385.81
2023-04-03T08:58:29.124Z,103366.75
2023-04-03T09:03:33.093Z,103366.22
2023-04-03T09:08:41.186Z,103368.00
2023-04-03T09:13:49.518Z,103367.03
2023-04-03T09:18:56.981Z,103364.47
2023-04-03T09:24:03.717Z,103369.94
2023-04-03T09:29:08.614Z,103364.78
2023-04-03T09:34:18.218Z,103348.53
2023-04-03T09:39:23.867Z,103340.00
2023-04-03T09:44:28.207Z,103331.88
2023-04-03T09:49:30.964Z,103332.94
2023-04-03T09:54:41.902Z,103331.72
2023-04-03T09:59:47.743Z,103328.00
2023-04-03T10:05:02.452Z,103322.78
2023-04-03T10:10:21.510Z,103311.19
2023-04-03T10:15:35.709Z,103307.84
2023-04-03T10:20:41.694Z,103315.31
2023-04-03T10:25:52.622Z,103325.75
2023-04-03T10:31:00.955Z,103307.88
2023-04-03T10:36:12.819Z,103311.59
2023-04-03T10:41:21.686Z,103324.31
2023-04-03T10:46:30.622Z,103312.47
2023-04-03T10:51:39.875Z,103307.31
2023-04-03T10:56:47.245Z,103315.63
2023-04-03T11:01:53.913Z,103307.78
2023-04-03T11:07:00.324Z,103301.66
2023-04-03T11:12:07.452Z,103299.16
2023-04-03T11:17:31.409Z,103307.53
2023-04-03T11:22:37.328Z,103298.91
2023-04-03T11:27:44.785Z,103301.94
2023-04-03T11:33:01.761Z,103280.06
2023-04-03T11:38:07.459Z,103279.31
2023-04-03T11:43:24.196Z,103279.50
2023-04-03T11:48:49.527Z,103270.03
2023-04-03T11:53:52.334Z,103255.88
2023-04-03T11:59:28.439Z,103257.09
2023-04-03T12:04:32.992Z,103246.25
2023-04-03T12:09:58.669Z,103237.75
2023-04-03T12:15:25.441Z,103226.69
2023-04-03T12:20:57.177Z,103226.56
2023-04-03T12:26:13.245Z,103218.78
2023-04-03T12:31:18.054Z,103200.41
2023-04-03T12:36:27.132Z,103206.56
2023-04-03T12:41:38.482Z,103210.31
2023-04-03T12:46:45.776Z,103208.59
2023-04-03T12:51:49.117Z,103209.03
2023-04-03T12:56:52.644Z,103208.72
2023-04-03T13:01:58.208Z,103197.06
2023-04-03T13:07:01.179Z,103199.53
2023-04-03T13:12:05.831Z,103177.88
2023-04-03T13:17:15.840Z,103187.53
2023-04-03T13:22:29.062Z,103193.06
2023-04-03T13:27:32.631Z,103185.38
2023-04-03T13:32:36.824Z,103181.91
2023-04-03T13:37:39.655Z,103173.94
2023-04-03T13:42:43.617Z,103172.31
2023-04-03T13:47:49.472Z,103177.72
2023-04-03T13:52:55.880Z,103169.25
2023-04-03T13:58:00.897Z,103171.28
2023-04-03T14:03:10.119Z,103166.56
2023-04-03T14:08:12.924Z,103167.19
2023-04-03T14:13:16.720Z,103161.34
2023-04-03T14:18:22.320Z,103152.63
2023-04-03T14:23:25.258Z,103153.56
2023-04-03T14:28:28.077Z,103158.44
2023-04-03T14:33:35.736Z,103146.31
2023-04-03T14:38:38.602Z,103157.44
2023-04-03T14:43:41.390Z,103153.28
2023-04-03T14:49:08.627Z,103139.00
2023-04-03T14:54:15.109Z,103135.03
2023-04-03T14:59:18.630Z,103144.09
2023-04-03T15:04:23.380Z,103143.47
2023-04-03T15:09:28.838Z,103141.56
2023-04-03T15:14:37.465Z,103129.97
2023-04-03T15:19:51.654Z,103131.31
2023-04-03T15:24:54.646Z,103128.94
2023-04-03T15:29:57.543Z,103131.78
2023-04-03T15:35:01.720Z,103133.25
2023-04-03T15:40:05.153Z,103122.13
2023-04-03T15:45:09.406Z,103134.09
2023-04-03T15:50:14.702Z,103127.91
2023-04-03T15:55:17.820Z,103127.69
2023-04-03T16:00:21.507Z,103128.56
2023-04-03T16:05:26.358Z,103128.53
2023-04-03T16:10:29.931Z,103121.81
2023-04-03T16:15:33.276Z,103120.38
2023-04-03T16:20:37.936Z,103120.13
2023-04-03T16:25:41.264Z,103119.56
2023-04-03T16:30:44.387Z,103111.25
2023-04-03T16:35:49.080Z,103111.19
2023-04-03T16:40:53.333Z,103112.28
2023-04-03T16:45:56.112Z,103107.13
2023-04-03T16:51:00.958Z,103112.97
2023-04-03T16:56:04.063Z,103104.66
2023-04-03T17:01:14.238Z,103104.69
2023-04-03T17:06:20.997Z,103107.06
2023-04-03T17:11:24.083Z,103117.84
2023-04-03T17:16:27.715Z,103100.56
2023-04-03T17:21:33.129Z,103110.00
2023-04-03T17:26:37.319Z,103098.75
2023-04-03T17:31:40.162Z,103112.28
2023-04-03T17:36:44.515Z,103112.91
2023-04-03T17:41:49.211Z,103115.50
2023-04-03T17:46:52.208Z,103106.09
2023-04-03T17:51:56.366Z,103102.94
2023-04-03T17:56:59.199Z,103101.28
2023-04-03T18:02:02.145Z,103094.91
2023-04-03T18:07:09.599Z,103096.13
2023-04-03T18:12:12.612Z,103101.53
2023-04-03T18:22:42.275Z,103094.81
2023-04-03T18:27:46.073Z,103095.50
2023-04-03T18:32:49.078Z,103096.34
2023-04-03T18:37:53.283Z,103097.09
2023-04-03T18:42:56.128Z,103094.31
2023-04-03T18:47:59.232Z,103105.78
2023-04-03T18:53:03.505Z,103117.88
2023-04-03T18:58:06.514Z,103115.38
2023-04-03T19:03:10.771Z,103120.41
2023-04-03T19:08:15.555Z,103110.41
2023-04-03T19:13:18.436Z,103114.28
2023-04-03T19:18:21.713Z,103123.34
2023-04-03T19:23:26.212Z,103120.88
2023-04-03T19:28:29.457Z,103125.28
2023-04-03T19:33:32.224Z,103123.50
2023-04-03T19:38:36.384Z,103117.28
2023-04-03T19:43:39.532Z,103118.78
2023-04-03T19:48:42.371Z,103123.47
2023-04-03T19:53:47.300Z,103119.78
2023-04-03T19:58:54.035Z,103125.72
2023-04-03T20:03:58.287Z,103122.00
2023-04-03T20:09:02.512Z,103115.53
2023-04-03T20:14:05.741Z,103112.94
2023-04-03T20:19:09.426Z,103108.50
2023-04-03T20:24:15.606Z,103111.66
2023-04-03T20:29:19.426Z,103118.00
2023-04-03T20:34:22.340Z,103124.06
2023-04-03T20:39:26.646Z,103128.19
2023-04-03T20:44:29.469Z,103127.13
2023-04-03T20:49:32.360Z,103130.50
2023-04-03T20:54:37.533Z,103122.19
2023-04-03T20:59:40.337Z,103122.66
2023-04-03T21:04:47.088Z,103122.50
2023-04-03T21:10:28.373Z,103132.72
2023-04-03T21:15:51.975Z,103138.44
2023-04-03T21:20:56.509Z,103136.00
2023-04-03T21:26:00.570Z,103139.84
2023-04-03T21:31:03.660Z,103127.94
2023-04-03T21:36:08.866Z,103121.53
2023-04-03T21:41:11.718Z,103128.44
2023-04-03T21:46:14.781Z,103131.91
2023-04-03T21:51:18.972Z,103110.97
2023-04-03T21:56:22.686Z,103104.50
2023-04-03T22:01:25.604Z,103092.09
2023-04-03T22:06:30.509Z,103086.25
2023-04-03T22:11:33.378Z,103083.25
2023-04-03T22:16:36.341Z,103078.03
2023-04-03T22:21:41.054Z,103088.75
2023-04-03T22:26:44.692Z,103096.72
2023-04-03T22:31:47.708Z,103100.53
2023-04-03T22:36:53.551Z,103098.69
2023-04-03T22:41:56.941Z,103110.84
2023-04-03T22:46:59.800Z,103097.06
2023-04-03T22:52:04.064Z,103108.16
2023-04-03T22:57:06.900Z,103106.91
2023-04-03T23:02:09.784Z,103115.31
2023-04-03T23:07:13.896Z,103110.91
2023-04-03T23:12:16.970Z,103102.47
2023-04-03T23:17:19.770Z,103115.03
2023-04-03T23:22:24.180Z,103106.31
2023-04-03T23:27:26.985Z,103110.84
2023-04-03T23:32:30.320Z,103102.06
2023-04-03T23:37:34.545Z,103097.06
2023-04-03T23:42:37.414Z,103095.06
2023-04-03T23:47:40.266Z,103088.66
2023-04-03T23:52:44.485Z,103085.25
2023-04-03T23:57:47.243Z,103087.25
